createdAt,value
2023-01-29T00:00:50.681Z,73987.78
2023-01-29T00:01:43.291Z,73991.78
2023-01-29T00:02:38.523Z,73987.78
2023-01-29T00:03:33.934Z,73979.78
2023-01-29T00:04:29.147Z,73987.78
2023-01-29T00:05:27.766Z,73993.75
2023-01-29T00:06:23.769Z,73991.78
2023-01-29T00:07:16.364Z,73995.75
2023-01-29T00:08:11.550Z,73991.78
2023-01-29T00:09:04.231Z,73991.78
2023-01-29T00:09:59.381Z,73991.78
2023-01-29T00:10:52.066Z,73989.78
2023-01-29T00:11:47.239Z,73995.75
2023-01-29T00:12:39.940Z,73997.75
2023-01-29T00:13:35.269Z,73999.75
2023-01-29T00:14:27.911Z,73999.75
2023-01-29T00:15:23.405Z,73999.75
2023-01-29T00:16:15.994Z,73999.75
2023-01-29T00:17:11.306Z,73999.75
2023-01-29T00:18:04.257Z,73999.75
2023-01-29T00:19:01.997Z,74003.75
2023-01-29T00:19:54.550Z,74007.75
2023-01-29T00:20:49.736Z,74007.75
2023-01-29T00:21:42.275Z,74009.75
2023-01-29T00:22:37.449Z,74007.75
2023-01-29T00:23:29.998Z,74007.75
2023-01-29T00:24:25.284Z,74011.72
2023-01-29T00:25:17.951Z,74017.72
2023-01-29T00:26:13.706Z,74011.72
2023-01-29T00:27:09.756Z,74011.72
2023-01-29T00:28:04.986Z,74009.75
2023-01-29T00:28:57.703Z,74013.72
2023-01-29T00:30:09.343Z,74011.72
2023-01-29T00:31:08.016Z,74011.72
2023-01-29T00:32:03.427Z,74013.72
2023-01-29T00:32:56.046Z,74015.72
2023-01-29T00:33:51.727Z,74015.72
2023-01-29T00:34:47.001Z,74023.72
2023-01-29T00:35:44.894Z,74019.72
2023-01-29T00:36:37.511Z,74015.72
2023-01-29T00:37:32.701Z,74019.72
2023-01-29T00:38:25.320Z,74015.72
2023-01-29T00:39:29.384Z,74015.72
2023-01-29T00:40:48.888Z,74011.72
2023-01-29T00:41:56.452Z,74015.72
2023-01-29T00:43:04.160Z,74013.72
2023-01-29T00:44:13.099Z,74011.72
2023-01-29T00:45:09.609Z,74017.72
2023-01-29T00:46:02.162Z,74019.72
2023-01-29T00:46:57.492Z,74023.72
2023-01-29T00:47:50.948Z,74027.72
2023-01-29T00:48:46.098Z,74021.72
2023-01-29T00:49:38.689Z,74027.72
2023-01-29T00:50:36.490Z,74027.72
2023-01-29T00:51:29.073Z,74023.72
2023-01-29T00:52:24.535Z,74027.72
2023-01-29T00:53:20.087Z,74027.72
2023-01-29T00:54:12.665Z,74023.72
2023-01-29T00:55:09.736Z,74023.72
2023-01-29T00:56:02.321Z,74035.69
2023-01-29T00:56:57.471Z,74027.72
2023-01-29T00:57:50.158Z,74027.72
2023-01-29T00:58:45.406Z,74023.72
2023-01-29T00:59:37.981Z,74019.72
2023-01-29T01:00:33.379Z,74021.72
2023-01-29T01:01:40.820Z,74023.72
2023-01-29T01:02:48.411Z,74027.72
2023-01-29T01:03:42.468Z,74027.72
2023-01-29T01:04:37.630Z,74027.72
2023-01-29T01:05:30.233Z,74023.72
2023-01-29T01:06:28.935Z,74031.69
2023-01-29T01:07:22.196Z,74027.72
2023-01-29T01:08:31.251Z,74027.72
2023-01-29T01:09:38.903Z,74021.72
2023-01-29T01:10:35.799Z,74033.69
2023-01-29T01:11:30.526Z,74035.69
2023-01-29T01:12:25.739Z,74027.72
2023-01-29T01:13:20.952Z,74033.69
2023-01-29T01:14:13.526Z,74039.69
2023-01-29T01:15:11.554Z,74047.66
2023-01-29T01:16:10.060Z,74043.69
2023-01-29T01:17:05.287Z,74043.69
2023-01-29T01:17:59.430Z,74039.69
2023-01-29T01:18:54.965Z,74043.69
2023-01-29T01:19:47.690Z,74039.69
2023-01-29T01:20:42.883Z,74035.69
2023-01-29T01:21:38.036Z,74041.69
2023-01-29T01:22:33.390Z,74041.69
2023-01-29T01:23:26.204Z,74039.69
2023-01-29T01:24:21.609Z,74039.69
2023-01-29T01:25:14.331Z,74037.69
2023-01-29T01:26:12.357Z,74035.69
2023-01-29T01:27:05.347Z,74037.69
2023-01-29T01:28:01.594Z,74033.69
2023-01-29T01:28:54.208Z,74039.69
2023-01-29T01:29:49.573Z,74027.72
2023-01-29T01:30:42.319Z,74035.69
2023-01-29T01:31:37.771Z,74035.69
2023-01-29T01:32:30.375Z,74037.69
2023-01-29T01:33:25.531Z,74035.69
2023-01-29T01:34:18.235Z,74035.69
2023-01-29T01:35:14.886Z,74037.69
2023-01-29T01:36:09.964Z,74031.69
2023-01-29T01:37:08.089Z,74037.69
2023-01-29T01:38:00.752Z,74039.69
2023-01-29T01:38:55.915Z,74039.69
2023-01-29T01:39:49.248Z,74039.69
2023-01-29T01:40:47.923Z,74035.69
2023-01-29T01:41:40.487Z,74037.69
2023-01-29T01:42:33.035Z,74035.69
2023-01-29T01:43:28.194Z,74039.69
2023-01-29T01:44:51.204Z,74043.69
2023-01-29T01:45:46.867Z,74039.69
2023-01-29T01:46:40.434Z,74035.69
2023-01-29T01:47:38.750Z,74039.69
2023-01-29T01:48:31.321Z,74035.69
2023-01-29T01:49:26.779Z,74037.69
2023-01-29T01:50:22.720Z,74035.69
2023-01-29T01:51:19.051Z,74043.69
2023-01-29T01:52:16.571Z,74035.69
2023-01-29T01:53:14.004Z,74039.69
2023-01-29T01:54:08.837Z,74039.69
2023-01-29T01:55:04.166Z,74047.66
2023-01-29T01:56:00.079Z,74041.69
2023-01-29T01:57:05.040Z,74043.69
2023-01-29T01:57:59.890Z,74043.69
2023-01-29T01:58:58.141Z,74043.69
2023-01-29T01:59:53.995Z,74047.66
2023-01-29T02:00:49.284Z,74041.69
2023-01-29T02:01:44.666Z,74055.66
2023-01-29T02:02:53.675Z,74049.66
2023-01-29T02:04:05.045Z,74045.69
2023-01-29T02:05:13.107Z,74039.69
2023-01-29T02:06:20.790Z,74047.66
2023-01-29T02:07:31.319Z,74047.66
2023-01-29T02:08:43.768Z,74055.66
2023-01-29T02:09:43.181Z,74039.69
2023-01-29T02:10:38.746Z,74047.66
2023-01-29T02:11:34.140Z,74049.66
2023-01-29T02:12:28.825Z,74041.69
2023-01-29T02:13:25.118Z,74047.66
2023-01-29T02:14:17.729Z,74051.66
2023-01-29T02:15:14.609Z,74053.66
2023-01-29T02:16:07.529Z,74051.66
2023-01-29T02:17:03.646Z,74053.66
2023-01-29T02:17:56.272Z,74053.66
2023-01-29T02:18:51.560Z,74047.66
2023-01-29T02:19:48.565Z,74047.66
2023-01-29T02:20:45.600Z,74039.69
2023-01-29T02:21:59.310Z,74043.69
2023-01-29T02:23:16.237Z,74041.69
2023-01-29T02:24:23.799Z,74043.69
2023-01-29T02:25:51.314Z,74051.66
2023-01-29T02:26:50.985Z,74043.69
2023-01-29T02:28:17.609Z,74047.66
2023-01-29T02:29:27.325Z,74051.66
2023-01-29T02:30:27.012Z,74049.66
2023-01-29T02:31:26.145Z,74051.66
2023-01-29T02:32:27.651Z,74049.66
2023-01-29T02:33:29.087Z,74047.66
2023-01-29T02:34:32.001Z,74051.66
2023-01-29T02:35:29.200Z,74045.69
2023-01-29T02:36:33.134Z,74047.66
2023-01-29T02:37:31.948Z,74047.66
2023-01-29T02:38:33.063Z,74049.66
2023-01-29T02:39:29.274Z,74047.66
2023-01-29T02:40:32.631Z,74043.69
2023-01-29T02:41:29.374Z,74055.66
2023-01-29T02:42:30.245Z,74055.66
2023-01-29T02:43:32.280Z,74051.66
2023-01-29T02:44:35.774Z,74043.69
2023-01-29T02:45:33.388Z,74055.66
2023-01-29T02:46:35.333Z,74055.66
2023-01-29T02:47:33.654Z,74049.66
2023-01-29T02:48:46.115Z,74051.66
2023-01-29T02:49:44.225Z,74051.66
2023-01-29T02:50:44.688Z,74049.66
2023-01-29T02:51:40.024Z,74041.69
2023-01-29T02:52:39.126Z,74051.66
2023-01-29T02:53:36.235Z,74051.66
2023-01-29T02:54:36.780Z,74051.66
2023-01-29T02:55:33.806Z,74051.66
2023-01-29T02:56:33.453Z,74047.66
2023-01-29T02:57:30.611Z,74053.66
2023-01-29T02:58:30.871Z,74053.66
2023-01-29T02:59:30.331Z,74047.66
2023-01-29T03:00:27.744Z,74049.66
2023-01-29T03:01:23.915Z,74051.66
2023-01-29T03:02:22.736Z,74051.66
2023-01-29T03:03:18.693Z,74047.66
2023-01-29T03:04:16.129Z,74051.66
2023-01-29T03:05:13.321Z,74047.66
2023-01-29T03:06:12.296Z,74059.66
2023-01-29T03:07:08.119Z,74049.66
2023-01-29T03:08:07.368Z,74051.66
2023-01-29T03:09:04.818Z,74059.66
2023-01-29T03:10:00.435Z,74049.66
2023-01-29T03:10:56.496Z,74059.66
2023-01-29T03:11:55.549Z,74053.66
2023-01-29T03:12:55.711Z,74055.66
2023-01-29T03:13:54.426Z,74047.66
2023-01-29T03:15:06.259Z,74049.66
2023-01-29T03:16:04.960Z,74055.66
2023-01-29T03:17:08.796Z,74053.66
2023-01-29T03:18:08.095Z,74051.66
2023-01-29T03:19:03.526Z,74059.66
2023-01-29T03:20:01.226Z,74055.66
2023-01-29T03:20:58.616Z,74049.66
2023-01-29T03:21:59.199Z,74059.66
2023-01-29T03:22:58.025Z,74053.66
2023-01-29T03:24:06.941Z,74059.66
2023-01-29T03:25:15.692Z,74061.66
2023-01-29T03:26:27.219Z,74059.66
2023-01-29T03:27:37.900Z,74063.66
2023-01-29T03:28:45.976Z,74067.63
2023-01-29T03:29:55.811Z,74063.66
2023-01-29T03:31:12.838Z,74063.66
2023-01-29T03:32:12.000Z,74063.66
2023-01-29T03:33:07.017Z,74063.66
2023-01-29T03:34:04.746Z,74067.63
2023-01-29T03:34:59.443Z,74061.66
2023-01-29T03:36:00.902Z,74057.66
2023-01-29T03:36:59.396Z,74059.66
2023-01-29T03:37:52.145Z,74063.66
2023-01-29T03:38:47.912Z,74059.66
2023-01-29T03:39:40.839Z,74061.66
2023-01-29T03:40:40.898Z,74057.66
2023-01-29T03:41:36.853Z,74057.66
2023-01-29T03:42:42.668Z,74063.66
2023-01-29T03:43:40.657Z,74059.66
2023-01-29T03:44:40.451Z,74065.66
2023-01-29T03:45:42.891Z,74067.63
2023-01-29T03:46:44.894Z,74067.63
2023-01-29T03:47:43.875Z,74055.66
2023-01-29T03:48:41.038Z,74059.66
2023-01-29T03:49:44.076Z,74055.66
2023-01-29T03:50:42.834Z,74059.66
2023-01-29T03:51:41.391Z,74057.66
2023-01-29T03:52:44.027Z,74059.66
2023-01-29T03:53:44.101Z,74059.66
2023-01-29T03:54:45.870Z,74063.66
2023-01-29T03:55:44.031Z,74063.66
2023-01-29T03:56:51.311Z,74059.66
2023-01-29T03:57:49.362Z,74057.66
2023-01-29T03:58:48.618Z,74063.66
2023-01-29T03:59:50.111Z,74065.66
2023-01-29T04:01:18.125Z,74063.66
2023-01-29T04:02:15.902Z,74063.66
2023-01-29T04:03:14.656Z,74063.66
2023-01-29T04:04:12.798Z,74059.66
2023-01-29T04:05:10.273Z,74065.66
2023-01-29T04:06:17.914Z,74067.63
2023-01-29T04:07:24.711Z,74063.66
2023-01-29T04:08:28.491Z,74063.66
2023-01-29T04:09:30.767Z,74055.66
2023-01-29T04:10:25.836Z,74067.63
2023-01-29T04:11:24.030Z,74063.66
2023-01-29T04:12:19.690Z,74069.63
2023-01-29T04:13:16.866Z,74067.63
2023-01-29T04:14:10.991Z,74067.63
2023-01-29T04:15:09.535Z,74073.63
2023-01-29T04:16:05.531Z,74071.63
2023-01-29T04:17:33.082Z,74065.66
2023-01-29T04:18:36.222Z,74065.66
2023-01-29T04:19:34.777Z,74069.63
2023-01-29T04:20:27.574Z,74059.66
2023-01-29T04:21:23.437Z,74059.66
2023-01-29T04:22:21.203Z,74059.66
2023-01-29T04:23:24.377Z,74065.66
2023-01-29T04:24:18.219Z,74067.63
2023-01-29T04:25:16.290Z,74067.63
2023-01-29T04:26:22.209Z,74071.63
2023-01-29T04:27:26.297Z,74061.66
2023-01-29T04:28:22.636Z,74055.66
2023-01-29T04:29:30.229Z,74063.66
2023-01-29T04:30:33.783Z,74063.66
2023-01-29T04:31:35.070Z,74063.66
2023-01-29T04:32:40.306Z,74065.66
2023-01-29T04:33:40.232Z,74065.66
2023-01-29T04:34:36.923Z,74065.66
2023-01-29T04:35:36.333Z,74063.66
2023-01-29T04:36:36.189Z,74065.66
2023-01-29T04:37:36.835Z,74065.66
2023-01-29T04:38:40.607Z,74067.63
2023-01-29T04:39:37.983Z,74077.63
2023-01-29T04:40:38.586Z,74073.63
2023-01-29T04:41:34.297Z,74075.63
2023-01-29T04:42:33.451Z,74063.66
2023-01-29T04:43:28.620Z,74075.63
2023-01-29T04:44:26.184Z,74073.63
2023-01-29T04:45:23.055Z,74079.63
2023-01-29T04:46:21.679Z,74073.63
2023-01-29T04:47:21.972Z,74075.63
2023-01-29T04:48:23.111Z,74075.63
2023-01-29T04:49:21.340Z,74077.63
2023-01-29T04:50:19.726Z,74077.63
2023-01-29T04:51:17.937Z,74071.63
2023-01-29T04:52:20.196Z,74085.59
2023-01-29T04:53:16.329Z,74087.59
2023-01-29T04:54:15.134Z,74079.63
2023-01-29T04:55:11.075Z,74083.63
2023-01-29T04:56:11.393Z,74085.59
2023-01-29T04:57:09.597Z,74081.63
2023-01-29T04:58:08.415Z,74085.59
2023-01-29T04:59:05.695Z,74083.63
2023-01-29T05:00:07.373Z,74083.63
2023-01-29T05:01:01.132Z,74081.63
2023-01-29T05:01:56.314Z,74075.63
2023-01-29T05:02:49.390Z,74079.63
2023-01-29T05:03:50.594Z,74079.63
2023-01-29T05:04:45.336Z,74081.63
2023-01-29T05:05:43.615Z,74083.63
2023-01-29T05:06:36.505Z,74083.63
2023-01-29T05:07:32.026Z,74079.63
2023-01-29T05:08:25.806Z,74083.63
2023-01-29T05:09:21.399Z,74083.63
2023-01-29T05:10:15.615Z,74083.63
2023-01-29T05:11:11.427Z,74081.63
2023-01-29T05:12:04.873Z,74077.63
2023-01-29T05:13:03.655Z,74085.59
2023-01-29T05:13:56.851Z,74079.63
2023-01-29T05:14:52.479Z,74083.63
2023-01-29T05:15:48.274Z,74083.63
2023-01-29T05:16:46.173Z,74083.63
2023-01-29T05:17:38.893Z,74087.59
2023-01-29T05:18:34.185Z,74079.63
2023-01-29T05:19:29.358Z,74083.63
2023-01-29T05:20:24.660Z,74087.59
2023-01-29T05:21:17.238Z,74091.59
2023-01-29T05:22:14.249Z,74093.59
2023-01-29T05:23:10.238Z,74089.59
2023-01-29T05:24:16.959Z,74095.59
2023-01-29T05:25:21.176Z,74085.59
2023-01-29T05:26:28.743Z,74087.59
2023-01-29T05:27:38.543Z,74083.63
2023-01-29T05:28:33.750Z,74079.63
2023-01-29T05:29:26.315Z,74081.63
2023-01-29T05:30:19.523Z,74091.59
2023-01-29T05:31:15.366Z,74091.59
2023-01-29T05:32:08.009Z,74093.59
2023-01-29T05:33:03.226Z,74095.59
2023-01-29T05:33:56.059Z,74099.59
2023-01-29T05:34:53.825Z,74095.59
2023-01-29T05:35:47.280Z,74091.59
2023-01-29T05:36:42.495Z,74095.59
2023-01-29T05:37:35.053Z,74095.59
2023-01-29T05:38:30.243Z,74087.59
2023-01-29T05:39:23.052Z,74093.59
2023-01-29T05:40:18.819Z,74089.59
2023-01-29T05:41:11.530Z,74083.63
2023-01-29T05:42:06.998Z,74091.59
2023-01-29T05:42:59.543Z,74085.59
2023-01-29T05:43:54.748Z,74079.63
2023-01-29T05:44:47.341Z,74083.63
2023-01-29T05:45:42.635Z,74079.63
2023-01-29T05:46:35.262Z,74087.59
2023-01-29T05:47:30.495Z,74079.63
2023-01-29T05:48:23.511Z,74085.59
2023-01-29T05:49:20.617Z,74083.63
2023-01-29T05:50:16.895Z,74089.59
2023-01-29T05:51:12.254Z,74095.59
2023-01-29T05:52:05.121Z,74095.59
2023-01-29T05:53:01.245Z,74101.59
2023-01-29T05:53:54.186Z,74105.56
2023-01-29T05:54:49.394Z,74103.56
2023-01-29T05:55:44.761Z,74095.59
2023-01-29T05:56:39.935Z,74095.59
2023-01-29T05:57:32.529Z,74097.59
2023-01-29T05:58:27.698Z,74095.59
2023-01-29T05:59:20.651Z,74095.59
2023-01-29T06:00:17.612Z,74089.59
2023-01-29T06:01:11.942Z,74093.59
2023-01-29T06:02:07.245Z,74097.59
2023-01-29T06:02:59.872Z,74091.59
2023-01-29T06:03:55.134Z,74091.59
2023-01-29T06:04:47.744Z,74091.59
2023-01-29T06:05:45.580Z,74091.59
2023-01-29T06:06:38.207Z,74099.59
2023-01-29T06:07:33.352Z,74093.59
2023-01-29T06:08:26.011Z,74091.59
2023-01-29T06:09:21.208Z,74095.59
2023-01-29T06:10:17.201Z,74095.59
2023-01-29T06:11:11.414Z,74095.59
2023-01-29T06:12:08.121Z,74093.59
2023-01-29T06:13:00.792Z,74091.59
2023-01-29T06:13:55.941Z,74091.59
2023-01-29T06:14:48.854Z,74103.56
2023-01-29T06:15:44.386Z,74099.59
2023-01-29T06:16:36.983Z,74103.56
2023-01-29T06:17:32.127Z,74103.56
2023-01-29T06:18:24.849Z,74101.59
2023-01-29T06:19:20.979Z,74107.56
2023-01-29T06:20:13.837Z,74105.56
2023-01-29T06:21:13.658Z,74105.56
2023-01-29T06:22:06.228Z,74103.56
2023-01-29T06:23:01.582Z,74107.56
2023-01-29T06:23:54.230Z,74103.56
2023-01-29T06:24:49.410Z,74107.56
2023-01-29T06:25:41.988Z,74107.56
2023-01-29T06:26:37.174Z,74103.56
2023-01-29T06:27:29.809Z,74111.56
2023-01-29T06:28:25.015Z,74103.56
2023-01-29T06:29:17.604Z,74103.56
2023-01-29T06:30:14.441Z,74099.59
2023-01-29T06:31:24.358Z,74099.59
2023-01-29T06:32:22.865Z,74105.56
2023-01-29T06:33:15.445Z,74103.56
2023-01-29T06:34:11.187Z,74103.56
2023-01-29T06:35:04.483Z,74105.56
2023-01-29T06:36:00.692Z,74101.59
2023-01-29T06:36:55.861Z,74097.59
2023-01-29T06:37:51.050Z,74105.56
2023-01-29T06:38:43.623Z,74093.59
2023-01-29T06:39:38.794Z,74095.59
2023-01-29T06:40:31.398Z,74099.59
2023-01-29T06:41:26.620Z,74099.59
2023-01-29T06:42:20.611Z,74095.59
2023-01-29T06:43:15.772Z,74093.59
2023-01-29T06:44:08.341Z,74087.59
2023-01-29T06:45:03.527Z,74081.63
2023-01-29T06:45:57.068Z,74083.63
2023-01-29T06:46:52.357Z,74087.59
2023-01-29T06:47:44.914Z,74083.63
2023-01-29T06:48:40.099Z,74067.63
2023-01-29T06:49:35.316Z,74059.66
2023-01-29T06:50:27.986Z,74045.69
2023-01-29T06:51:23.304Z,74035.69
2023-01-29T06:52:18.505Z,74023.72
2023-01-29T06:53:14.004Z,74011.72
2023-01-29T06:54:08.442Z,73999.75
2023-01-29T06:55:03.595Z,73995.75
2023-01-29T06:55:56.196Z,73979.78
2023-01-29T06:56:51.419Z,73963.81
2023-01-29T06:57:43.961Z,73955.84
2023-01-29T06:58:40.223Z,73945.84
2023-01-29T06:59:32.863Z,73931.88
2023-01-29T07:00:30.021Z,73929.88
2023-01-29T07:01:35.027Z,73915.91
2023-01-29T07:02:31.234Z,73909.91
2023-01-29T07:03:23.911Z,73905.91
2023-01-29T07:04:19.057Z,73899.94
2023-01-29T07:05:11.664Z,73891.94
2023-01-29T07:06:08.317Z,73889.94
2023-01-29T07:07:00.904Z,73883.94
2023-01-29T07:07:58.768Z,73877.97
2023-01-29T07:08:51.327Z,73879.97
2023-01-29T07:09:46.709Z,73875.97
2023-01-29T07:10:39.299Z,73875.97
2023-01-29T07:11:34.664Z,73873.97
2023-01-29T07:12:27.259Z,73867.97
2023-01-29T07:13:22.462Z,73864.00
2023-01-29T07:14:15.071Z,73867.97
2023-01-29T07:15:12.725Z,73864.00
2023-01-29T07:16:06.681Z,73862.00
2023-01-29T07:17:01.840Z,73852.00
2023-01-29T07:17:58.770Z,73864.00
2023-01-29T07:18:54.015Z,73866.00
2023-01-29T07:19:46.590Z,73871.97
2023-01-29T07:20:42.824Z,73879.97
2023-01-29T07:21:35.393Z,73885.94
2023-01-29T07:22:30.542Z,73893.94
2023-01-29T07:23:25.773Z,73895.94
2023-01-29T07:24:21.790Z,73911.91
2023-01-29T07:25:14.579Z,73927.88
2023-01-29T07:26:09.990Z,73943.84
2023-01-29T07:27:02.543Z,73951.84
2023-01-29T07:27:59.962Z,73959.81
2023-01-29T07:28:53.410Z,73971.81
2023-01-29T07:29:48.671Z,73977.78
2023-01-29T07:30:41.233Z,73983.78
2023-01-29T07:31:36.514Z,73991.78
2023-01-29T07:32:29.461Z,73999.75
2023-01-29T07:33:24.617Z,73999.75
2023-01-29T07:34:17.199Z,74003.75
2023-01-29T07:35:12.899Z,74011.72
2023-01-29T07:36:08.324Z,74019.72
2023-01-29T07:37:03.506Z,74021.72
2023-01-29T07:37:56.195Z,74023.72
2023-01-29T07:38:54.918Z,74019.72
2023-01-29T07:39:47.810Z,74023.72
2023-01-29T07:40:42.998Z,74025.72
2023-01-29T07:41:35.553Z,74031.69
2023-01-29T07:42:36.688Z,74031.69
2023-01-29T07:43:29.244Z,74039.69
2023-01-29T07:44:24.453Z,74037.69
2023-01-29T07:45:17.196Z,74029.72
2023-01-29T07:46:12.467Z,74039.69
2023-01-29T07:47:05.221Z,74039.69
2023-01-29T07:48:00.771Z,74051.66
2023-01-29T07:48:53.329Z,74047.66
2023-01-29T07:49:48.477Z,74047.66
2023-01-29T07:50:41.243Z,74049.66
2023-01-29T07:51:36.466Z,74053.66
2023-01-29T07:52:30.476Z,74047.66
2023-01-29T07:53:25.758Z,74053.66
2023-01-29T07:54:21.082Z,74043.69
2023-01-29T07:55:16.218Z,74051.66
2023-01-29T07:56:08.806Z,74063.66
2023-01-29T07:57:04.020Z,74059.66
2023-01-29T07:57:57.206Z,74067.63
2023-01-29T07:58:52.796Z,74063.66
2023-01-29T07:59:45.346Z,74071.63
2023-01-29T08:00:40.526Z,74067.63
2023-01-29T08:01:33.091Z,74073.63
2023-01-29T08:02:28.377Z,74075.63
2023-01-29T08:03:21.015Z,74071.63
2023-01-29T08:04:16.203Z,74067.63
2023-01-29T08:05:09.718Z,74069.63
2023-01-29T08:06:06.008Z,74069.63
2023-01-29T08:06:58.585Z,74073.63
2023-01-29T08:08:06.048Z,74073.63
2023-01-29T08:08:59.881Z,74075.63
2023-01-29T08:09:57.647Z,74071.63
2023-01-29T08:10:50.259Z,74071.63
2023-01-29T08:11:45.435Z,74071.63
2023-01-29T08:12:38.042Z,74071.63
2023-01-29T08:13:33.289Z,74081.63
2023-01-29T08:14:25.868Z,74077.63
2023-01-29T08:15:21.007Z,74071.63
2023-01-29T08:16:13.606Z,74073.63
2023-01-29T08:17:08.783Z,74071.63
2023-01-29T08:18:02.046Z,74073.63
2023-01-29T08:18:57.238Z,74073.63
2023-01-29T08:19:49.793Z,74071.63
2023-01-29T08:20:44.953Z,74075.63
2023-01-29T08:21:37.542Z,74067.63
2023-01-29T08:22:32.699Z,74071.63
2023-01-29T08:23:25.320Z,74073.63
2023-01-29T08:24:20.783Z,74071.63
2023-01-29T08:25:16.033Z,74067.63
2023-01-29T08:26:11.505Z,74071.63
2023-01-29T08:27:04.350Z,74067.63
2023-01-29T08:28:00.726Z,74067.63
2023-01-29T08:28:53.651Z,74067.63
2023-01-29T08:29:48.835Z,74063.66
2023-01-29T08:30:41.525Z,74067.63
2023-01-29T08:31:36.742Z,74063.66
2023-01-29T08:32:29.335Z,74071.63
2023-01-29T08:33:38.003Z,74067.63
2023-01-29T08:34:33.804Z,74067.63
2023-01-29T08:35:26.890Z,74069.63
2023-01-29T08:36:22.065Z,74069.63
2023-01-29T08:37:14.639Z,74071.63
2023-01-29T08:38:09.858Z,74063.66
2023-01-29T08:39:02.409Z,74073.63
2023-01-29T08:39:57.586Z,74069.63
2023-01-29T08:40:52.750Z,74073.63
2023-01-29T08:41:48.021Z,74067.63
2023-01-29T08:42:42.136Z,74059.66
2023-01-29T08:43:38.715Z,74065.66
2023-01-29T08:44:31.280Z,74069.63
2023-01-29T08:45:26.435Z,74073.63
2023-01-29T08:46:19.019Z,74071.63
2023-01-29T08:47:14.270Z,74073.63
2023-01-29T08:48:07.037Z,74075.63
2023-01-29T08:49:02.999Z,74071.63
2023-01-29T08:49:55.558Z,74069.63
2023-01-29T08:50:50.732Z,74071.63
2023-01-29T08:51:43.273Z,74063.66
2023-01-29T08:52:38.470Z,74067.63
2023-01-29T08:53:31.092Z,74063.66
2023-01-29T08:54:26.256Z,74059.66
2023-01-29T08:55:19.200Z,74055.66
2023-01-29T08:56:17.054Z,74063.66
2023-01-29T08:57:09.661Z,74055.66
2023-01-29T08:58:06.640Z,74059.66
2023-01-29T08:58:59.285Z,74055.66
2023-01-29T08:59:54.456Z,74055.66
2023-01-29T09:00:47.098Z,74059.66
2023-01-29T09:01:42.258Z,74061.66
2023-01-29T09:02:34.935Z,74053.66
2023-01-29T09:03:30.149Z,74055.66
2023-01-29T09:04:22.925Z,74059.66
2023-01-29T09:05:18.743Z,74055.66
2023-01-29T09:06:12.689Z,74059.66
2023-01-29T09:07:07.867Z,74055.66
2023-01-29T09:08:00.456Z,74065.66
2023-01-29T09:08:55.658Z,74059.66
2023-01-29T09:09:48.211Z,74053.66
2023-01-29T09:10:43.372Z,74055.66
2023-01-29T09:11:38.822Z,74055.66
2023-01-29T09:12:33.991Z,74063.66
2023-01-29T09:13:26.591Z,74063.66
2023-01-29T09:14:22.412Z,74055.66
2023-01-29T09:15:15.544Z,74065.66
2023-01-29T09:16:12.035Z,74065.66
2023-01-29T09:17:04.764Z,74059.66
2023-01-29T09:17:59.935Z,74057.66
2023-01-29T09:18:53.431Z,74059.66
2023-01-29T09:19:48.628Z,74063.66
2023-01-29T09:20:41.181Z,74057.66
2023-01-29T09:21:36.371Z,74061.66
2023-01-29T09:22:29.040Z,74071.63
2023-01-29T09:23:24.514Z,74067.63
2023-01-29T09:24:17.276Z,74059.66
2023-01-29T09:25:13.371Z,74065.66
2023-01-29T09:26:10.355Z,74067.63
2023-01-29T09:27:06.324Z,74067.63
2023-01-29T09:28:01.534Z,74067.63
2023-01-29T09:28:54.091Z,74067.63
2023-01-29T09:29:49.242Z,74063.66
2023-01-29T09:30:41.938Z,74063.66
2023-01-29T09:31:37.160Z,74063.66
2023-01-29T09:32:52.762Z,74067.63
2023-01-29T09:33:45.926Z,74065.66
2023-01-29T09:34:38.487Z,74065.66
2023-01-29T09:35:33.723Z,74071.63
2023-01-29T09:36:26.281Z,74061.66
2023-01-29T09:37:23.465Z,74067.63
2023-01-29T09:38:16.047Z,74063.66
2023-01-29T09:39:11.338Z,74061.66
2023-01-29T09:40:04.486Z,74061.66
2023-01-29T09:41:05.460Z,74063.66
2023-01-29T09:42:07.726Z,74063.66
2023-01-29T09:43:06.686Z,74065.66
2023-01-29T09:44:01.755Z,74067.63
2023-01-29T09:45:02.815Z,74063.66
2023-01-29T09:45:58.298Z,74067.63
2023-01-29T09:46:54.271Z,74075.63
2023-01-29T09:47:48.855Z,74071.63
2023-01-29T09:48:44.211Z,74071.63
2023-01-29T09:49:41.782Z,74067.63
2023-01-29T09:50:40.427Z,74073.63
2023-01-29T09:51:37.647Z,74079.63
2023-01-29T09:52:36.344Z,74077.63
2023-01-29T09:53:35.230Z,74079.63
2023-01-29T09:54:30.878Z,74079.63
2023-01-29T09:55:29.377Z,74079.63
2023-01-29T09:56:23.805Z,74079.63
2023-01-29T09:57:25.979Z,74079.63
2023-01-29T09:58:21.399Z,74079.63
2023-01-29T09:59:17.429Z,74079.63
2023-01-29T10:00:17.979Z,74077.63
2023-01-29T10:01:17.220Z,74077.63
2023-01-29T10:02:16.486Z,74077.63
2023-01-29T10:03:19.854Z,74077.63
2023-01-29T10:05:02.700Z,74079.63
2023-01-29T10:06:13.734Z,74091.59
2023-01-29T10:07:17.677Z,74085.59
2023-01-29T10:08:45.244Z,74083.63
2023-01-29T10:09:49.779Z,74083.63
2023-01-29T10:10:51.546Z,74083.63
2023-01-29T10:11:47.645Z,74083.63
2023-01-29T10:12:59.632Z,74083.63
2023-01-29T10:13:59.033Z,74083.63
2023-01-29T10:15:02.198Z,74083.63
2023-01-29T10:16:16.754Z,74079.63
2023-01-29T10:17:26.683Z,74089.59
2023-01-29T10:18:50.018Z,74079.63
2023-01-29T10:19:59.177Z,74091.59
2023-01-29T10:20:58.065Z,74081.63
2023-01-29T10:22:03.034Z,74079.63
2023-01-29T10:23:12.159Z,74085.59
2023-01-29T10:24:14.375Z,74075.63
2023-01-29T10:25:13.553Z,74085.59
2023-01-29T10:26:08.821Z,74071.63
2023-01-29T10:27:04.334Z,74051.66
2023-01-29T10:28:00.542Z,74035.69
2023-01-29T10:28:58.244Z,74027.72
2023-01-29T10:29:54.117Z,74015.72
2023-01-29T10:30:51.744Z,74001.75
2023-01-29T10:31:45.524Z,73985.78
2023-01-29T10:32:41.059Z,73971.81
2023-01-29T10:33:49.333Z,73963.81
2023-01-29T10:34:56.950Z,73945.84
2023-01-29T10:35:56.724Z,73935.88
2023-01-29T10:36:50.418Z,73925.88
2023-01-29T10:37:46.552Z,73921.88
2023-01-29T10:38:44.340Z,73915.91
2023-01-29T10:39:39.517Z,73907.91
2023-01-29T10:40:37.651Z,73903.91
2023-01-29T10:41:54.057Z,73899.94
2023-01-29T10:42:49.221Z,73895.94
2023-01-29T10:43:57.211Z,73899.94
2023-01-29T10:45:02.446Z,73889.94
2023-01-29T10:46:03.736Z,73891.94
2023-01-29T10:47:10.735Z,73887.94
2023-01-29T10:48:17.535Z,73883.94
2023-01-29T10:49:21.714Z,73879.97
2023-01-29T10:50:23.155Z,73871.97
2023-01-29T10:51:27.666Z,73867.97
2023-01-29T10:52:32.644Z,73864.00
2023-01-29T10:53:37.565Z,73871.97
2023-01-29T10:54:41.000Z,73867.97
2023-01-29T10:55:44.337Z,73873.97
2023-01-29T10:56:48.790Z,73875.97
2023-01-29T10:57:53.613Z,73875.97
2023-01-29T10:58:51.475Z,73875.97
2023-01-29T10:59:57.651Z,73867.97
2023-01-29T11:00:50.369Z,73869.97
2023-01-29T11:01:45.601Z,73871.97
2023-01-29T11:02:43.874Z,73873.97
2023-01-29T11:03:39.702Z,73864.00
2023-01-29T11:04:32.534Z,73869.97
2023-01-29T11:05:32.331Z,73864.00
2023-01-29T11:06:30.056Z,73867.97
2023-01-29T11:07:25.499Z,73864.00
2023-01-29T11:08:20.806Z,73860.00
2023-01-29T11:09:21.825Z,73860.00
2023-01-29T11:10:15.810Z,73864.00
2023-01-29T11:11:12.285Z,73852.00
2023-01-29T11:12:10.127Z,73858.00
2023-01-29T11:13:06.048Z,73852.00
2023-01-29T11:14:07.434Z,73856.00
2023-01-29T11:15:04.119Z,73858.00